Time;durP1;ratioP1;P1;durP2;ratioP2;P2;SDS_P1;SDS_P2;PMS_P1;PMS_P2;Temp;Humidity;BMP_temperature;BMP_pressure;BME280_temperature;BME280_humidity;BME280_pressure;Samples;Min_cycle;Max_cycle;Signal;HPM_P1;HPM_P2
2022/05/27 00:01:11;;;;;;;2.92;1.90;;;17.30;98.60;;;;;;5051956;28;20290;-67
2022/05/27 00:03:39;;;;;;;3.10;2.15;;;17.20;98.70;;;;;;5051566;28;20206;-67
2022/05/27 00:06:06;;;;;;;2.00;1.90;;;17.20;98.80;;;;;;5051888;28;20210;-68
2022/05/27 00:08:33;;;;;;;1.75;1.65;;;17.20;98.80;;;;;;5051915;28;20234;-68
2022/05/27 00:11:01;;;;;;;2.35;1.80;;;17.20;98.80;;;;;;5051466;28;20234;-68
2022/05/27 00:13:29;;;;;;;1.88;1.70;;;17.20;98.70;;;;;;5051837;28;20226;-68
2022/05/27 00:15:56;;;;;;;1.73;1.63;;;17.20;98.80;;;;;;5051714;28;20645;-69
2022/05/27 00:18:23;;;;;;;2.58;2.08;;;17.10;98.80;;;;;;5054458;28;20734;-68
2022/05/27 00:20:51;;;;;;;1.90;1.77;;;17.00;99.30;;;;;;5055321;28;20203;-67
2022/05/27 00:23:20;;;;;;;2.20;2.03;;;17.10;99.50;;;;;;5055132;28;20260;-67
2022/05/27 00:25:47;;;;;;;2.40;2.20;;;17.10;99.00;;;;;;5054987;28;20207;-67
2022/05/27 00:28:13;;;;;;;2.05;1.95;;;17.00;99.00;;;;;;5055369;28;20589;-67
2022/05/27 00:30:40;;;;;;;1.90;1.80;;;17.00;99.30;;;;;;5055061;28;20219;-67
2022/05/27 00:33:07;;;;;;;2.20;2.00;;;16.90;99.40;;;;;;5054918;28;20644;-66
2022/05/27 00:35:34;;;;;;;2.40;2.20;;;16.90;99.50;;;;;;5055057;28;20235;-67
2022/05/27 00:38:03;;;;;;;2.17;1.70;;;16.90;99.60;;;;;;5054960;28;20227;-68
2022/05/27 00:40:36;;;;;;;1.98;1.83;;;16.90;99.70;;;;;;5055006;28;20290;-67
2022/05/27 00:43:03;;;;;;;1.65;1.55;;;16.90;99.60;;;;;;5055058;28;20207;-68
2022/05/27 00:45:30;;;;;;;2.28;2.13;;;16.80;99.80;;;;;;5054857;28;20207;-68
2022/05/27 00:47:58;;;;;;;2.00;1.80;;;16.80;99.90;;;;;;5055272;28;20230;-68
2022/05/27 00:50:28;;;;;;;2.30;1.70;;;16.80;99.90;;;;;;5054744;28;20223;-68
2022/05/27 00:52:56;;;;;;;2.30;2.10;;;16.70;99.90;;;;;;5054160;28;20646;-67
2022/05/27 00:55:29;;;;;;;2.42;2.10;;;16.70;99.90;;;;;;5054824;28;20210;-67
2022/05/27 00:58:02;;;;;;;2.33;2.10;;;16.70;99.90;;;;;;5054669;28;20231;-67
2022/05/27 01:00:29;;;;;;;2.38;2.08;;;16.60;99.90;;;;;;5054601;28;20199;-68
2022/05/27 01:02:57;;;;;;;2.00;1.90;;;16.50;99.90;;;;;;5054263;28;20211;-68
2022/05/27 01:05:25;;;;;;;2.53;1.92;;;16.50;99.90;;;;;;5054211;28;20706;-68
2022/05/27 01:07:54;;;;;;;2.00;1.90;;;16.50;99.90;;;;;;5054407;28;20230;-69
2022/05/27 01:10:22;;;;;;;2.45;1.90;;;16.50;99.90;;;;;;5054347;28;20230;-68
2022/05/27 01:13:17;;;;;;;2.00;1.90;;;16.50;99.90;;;;;;5054036;28;20206;-68
2022/05/27 01:15:53;;;;;;;2.05;1.83;;;16.50;99.90;;;;;;5054202;28;20206;-68
2022/05/27 01:21:19;;;;;;;1.80;1.70;;;16.50;99.90;;;;;;5053645;28;20565;-67
2022/05/27 01:24:14;;;;;;;1.90;1.80;;;16.50;99.90;;;;;;5054056;28;20211;-67
2022/05/27 01:27:17;;;;;;;1.88;1.77;;;16.50;99.90;;;;;;5054186;28;20581;-66
2022/05/27 01:30:20;;;;;;;2.35;2.15;;;16.60;99.90;;;;;;5053717;28;20227;-67
2022/05/27 01:32:57;;;;;;;1.90;1.80;;;16.60;99.90;;;;;;5053916;28;20202;-66
2022/05/27 01:35:32;;;;;;;3.35;2.88;;;16.50;99.90;;;;;;5054676;28;20206;-68
2022/05/27 01:38:05;;;;;;;1.80;1.70;;;16.50;99.90;;;;;;5055492;28;20230;-68
2022/05/27 01:40:40;;;;;;;2.70;2.15;;;16.50;99.90;;;;;;5055038;28;20187;-68
2022/05/27 01:43:16;;;;;;;3.35;2.13;;;16.50;99.90;;;;;;5054560;28;20203;-68
2022/05/27 01:45:52;;;;;;;2.40;2.20;;;16.50;99.90;;;;;;5054911;28;20206;-68
2022/05/27 01:48:24;;;;;;;2.38;2.25;;;16.50;99.90;;;;;;5054488;28;20311;-68
2022/05/27 01:50:58;;;;;;;2.33;2.13;;;16.50;99.90;;;;;;5054662;28;20222;-68
2022/05/27 01:53:29;;;;;;;2.10;2.00;;;16.60;99.90;;;;;;5054468;28;20219;-68
2022/05/27 01:55:58;;;;;;;6.20;1.95;;;16.60;99.90;;;;;;5054630;28;20210;-68
2022/05/27 01:58:30;;;;;;;2.17;2.08;;;16.60;99.90;;;;;;5054645;28;20230;-68
2022/05/27 02:00:59;;;;;;;2.83;2.10;;;16.60;99.90;;;;;;5054615;28;20210;-68
2022/05/27 02:03:30;;;;;;;2.10;2.00;;;16.60;99.90;;;;;;5054184;28;20233;-68
2022/05/27 02:06:01;;;;;;;2.50;1.90;;;16.60;99.90;;;;;;5054544;28;20199;-68
2022/05/27 02:08:33;;;;;;;2.42;2.22;;;16.50;99.90;;;;;;5054470;28;20227;-68
2022/05/27 02:11:03;;;;;;;2.55;1.90;;;16.50;99.90;;;;;;5054360;28;20571;-68
2022/05/27 02:13:35;;;;;;;2.05;1.95;;;16.50;99.90;;;;;;5054286;28;20213;-68
2022/05/27 02:16:05;;;;;;;2.33;2.13;;;16.60;99.90;;;;;;5054184;28;20669;-68
2022/05/27 02:18:36;;;;;;;2.00;1.90;;;16.50;99.90;;;;;;5053927;28;20223;-68
2022/05/27 02:21:10;;;;;;;2.75;2.20;;;16.60;99.90;;;;;;5054246;28;20213;-68
2022/05/27 02:23:41;;;;;;;2.38;2.17;;;16.50;99.90;;;;;;5054016;28;20609;-68
2022/05/27 02:26:17;;;;;;;1.80;1.70;;;16.50;99.90;;;;;;5054136;28;20297;-68
2022/05/27 02:28:50;;;;;;;2.03;1.83;;;16.50;99.90;;;;;;5053782;28;20703;-68
2022/05/27 02:31:22;;;;;;;3.00;2.35;;;16.50;99.90;;;;;;5053978;28;20226;-68
2022/05/27 02:36:39;;;;;;;2.78;2.55;;;16.50;99.90;;;;;;5053928;28;20202;-68
2022/05/27 02:39:08;;;;;;;5.05;3.83;;;16.50;99.90;;;;;;5053371;28;20302;-68
2022/05/27 02:41:39;;;;;;;2.40;2.15;;;16.40;99.90;;;;;;5053434;28;20207;-68
2022/05/27 02:44:23;;;;;;;2.40;2.20;;;16.40;99.90;;;;;;5053704;28;20213;-68
2022/05/27 02:46:58;;;;;;;2.10;2.00;;;16.40;99.90;;;;;;5053755;28;20218;-68
2022/05/27 02:49:35;;;;;;;2.50;2.30;;;16.40;99.90;;;;;;5053702;28;20195;-68
2022/05/27 02:52:11;;;;;;;2.10;2.00;;;16.30;99.90;;;;;;5053480;28;20213;-68
2022/05/27 02:54:44;;;;;;;2.30;2.20;;;16.30;99.90;;;;;;5053426;28;20218;-68
2022/05/27 02:57:18;;;;;;;3.28;2.65;;;16.30;99.90;;;;;;5053537;28;20708;-68
2022/05/27 02:59:45;;;;;;;2.60;2.00;;;16.20;99.90;;;;;;5053732;28;20183;-68
2022/05/27 03:02:17;;;;;;;2.50;2.30;;;16.10;99.90;;;;;;5053465;28;20272;-68
2022/05/27 03:04:47;;;;;;;2.45;2.20;;;15.90;99.90;;;;;;5053416;28;20213;-68
2022/05/27 03:07:29;;;;;;;2.65;2.35;;;15.90;99.90;;;;;;5053469;28;20587;-68
2022/05/27 03:10:09;;;;;;;2.80;2.58;;;15.80;99.90;;;;;;5053263;28;20230;-68
2022/05/27 03:12:46;;;;;;;3.03;2.65;;;15.80;99.90;;;;;;5053385;28;20233;-68
2022/05/27 03:15:25;;;;;;;2.70;2.50;;;15.80;99.90;;;;;;5053555;28;20207;-68
2022/05/27 03:18:06;;;;;;;2.42;2.22;;;15.70;99.90;;;;;;5053429;28;20241;-68
2022/05/27 03:20:44;;;;;;;3.05;2.65;;;15.70;99.90;;;;;;5053472;28;20186;-68
2022/05/27 03:23:23;;;;;;;3.42;2.40;;;15.70;99.90;;;;;;5053290;28;20300;-68
2022/05/27 03:25:55;;;;;;;2.53;2.33;;;15.80;99.90;;;;;;5053417;28;20633;-68
2022/05/27 03:28:34;;;;;;;2.80;2.50;;;15.90;99.90;;;;;;5053409;28;20230;-68
2022/05/27 03:31:06;;;;;;;2.70;2.50;;;15.90;99.90;;;;;;5053196;28;20226;-68
2022/05/27 03:33:38;;;;;;;2.38;2.28;;;16.00;99.90;;;;;;5053211;28;20210;-68
2022/05/27 03:36:12;;;;;;;3.00;2.70;;;16.10;99.90;;;;;;5053363;28;20206;-68
2022/05/27 03:38:43;;;;;;;2.30;2.20;;;16.20;99.90;;;;;;5053291;28;20242;-68
2022/05/27 03:41:16;;;;;;;2.60;2.40;;;16.30;99.90;;;;;;5053302;28;20203;-68
2022/05/27 03:43:44;;;;;;;2.60;2.40;;;16.40;99.90;;;;;;5052805;28;20211;-68
2022/05/27 03:46:11;;;;;;;2.90;2.70;;;16.50;99.90;;;;;;5053306;28;20202;-68
2022/05/27 03:48:40;;;;;;;3.83;2.42;;;16.60;99.90;;;;;;5053146;28;20232;-68
2022/05/27 03:51:12;;;;;;;2.60;2.40;;;16.60;99.90;;;;;;5053949;28;20589;-68
2022/05/27 03:56:23;;;;;;;2.35;2.15;;;16.70;99.90;;;;;;5057164;28;20283;-68
2022/05/27 03:58:50;;;;;;;11.30;8.18;;;16.80;99.90;;;;;;5056939;28;20321;-68
2022/05/27 04:01:22;;;;;;;4.35;3.67;;;16.80;99.90;;;;;;5056704;28;20207;-68
2022/05/27 04:03:51;;;;;;;2.60;2.40;;;16.80;99.90;;;;;;5056589;28;20669;-69
2022/05/27 04:06:17;;;;;;;2.28;2.08;;;16.80;99.90;;;;;;5056822;28;20209;-68
2022/05/27 04:08:44;;;;;;;4.15;2.25;;;16.80;99.90;;;;;;5056666;28;20705;-68
2022/05/27 04:11:11;;;;;;;2.58;2.38;;;16.80;99.90;;;;;;5056803;28;20314;-68
2022/05/27 04:13:38;;;;;;;2.55;2.35;;;16.80;99.90;;;;;;5056312;28;20204;-68
2022/05/27 04:16:05;;;;;;;2.92;2.50;;;16.80;99.90;;;;;;5056495;28;20691;-68
2022/05/27 04:18:32;;;;;;;2.45;2.10;;;16.70;99.90;;;;;;5056560;28;20232;-68
2022/05/27 04:21:00;;;;;;;2.22;2.13;;;16.70;99.90;;;;;;5056490;28;20224;-68
2022/05/27 04:23:27;;;;;;;3.65;2.85;;;16.70;99.90;;;;;;5056309;28;20238;-68
2022/05/27 04:25:54;;;;;;;3.80;2.83;;;16.60;99.90;;;;;;5056248;28;20241;-68
2022/05/27 04:28:21;;;;;;;7.50;6.00;;;16.70;99.90;;;;;;5056404;28;20344;-68
2022/05/27 04:30:47;;;;;;;6.20;5.10;;;16.70;99.90;;;;;;5056141;28;20215;-68
2022/05/27 04:33:14;;;;;;;2.80;2.60;;;16.70;99.90;;;;;;5055941;28;20211;-68
2022/05/27 04:35:42;;;;;;;3.03;2.72;;;16.70;99.90;;;;;;5056234;28;20212;-68
2022/05/27 04:38:10;;;;;;;3.53;3.22;;;16.70;99.90;;;;;;5056198;28;20223;-67
2022/05/27 04:40:37;;;;;;;3.08;2.78;;;16.70;99.90;;;;;;5056168;28;20199;-68
2022/05/27 04:43:05;;;;;;;3.80;2.80;;;16.70;99.90;;;;;;5055817;28;20628;-68
2022/05/27 04:45:31;;;;;;;3.00;2.70;;;16.80;99.90;;;;;;5056061;28;20210;-68
2022/05/27 04:47:58;;;;;;;3.10;2.90;;;16.80;99.90;;;;;;5055941;28;20234;-68
2022/05/27 04:50:27;;;;;;;3.40;3.10;;;16.80;99.90;;;;;;5055658;28;20697;-68
2022/05/27 04:52:54;;;;;;;3.30;3.00;;;16.80;99.90;;;;;;5055655;28;20214;-68
2022/05/27 04:55:23;;;;;;;3.13;2.78;;;16.80;99.90;;;;;;5055909;28;20203;-68
2022/05/27 04:57:52;;;;;;;2.85;2.53;;;16.80;99.90;;;;;;5055651;28;20231;-68
2022/05/27 05:00:21;;;;;;;3.35;2.70;;;16.80;99.90;;;;;;5055829;28;20293;-68
2022/05/27 05:02:48;;;;;;;2.97;2.67;;;16.70;99.90;;;;;;5054688;28;20286;-68
2022/05/27 05:05:17;;;;;;;3.75;3.25;;;16.70;99.90;;;;;;5055492;28;20661;-68
2022/05/27 05:07:46;;;;;;;3.30;2.97;;;16.80;99.90;;;;;;5055705;28;20234;-68
2022/05/27 05:10:15;;;;;;;4.15;2.97;;;16.80;99.90;;;;;;5055398;28;20297;-68
2022/05/27 05:12:44;;;;;;;2.80;2.60;;;16.80;99.90;;;;;;5055438;28;20290;-68
2022/05/27 05:15:11;;;;;;;3.10;2.70;;;16.80;99.90;;;;;;5055436;28;20208;-68
2022/05/27 05:17:39;;;;;;;3.05;2.75;;;16.80;99.90;;;;;;5055528;28;20223;-68
2022/05/27 05:20:07;;;;;;;3.35;2.90;;;16.90;99.90;;;;;;5055477;28;20205;-68
2022/05/27 05:22:34;;;;;;;2.80;2.60;;;16.90;99.90;;;;;;5055192;28;20723;-68
2022/05/27 05:25:01;;;;;;;3.25;2.65;;;17.00;99.90;;;;;;5055406;28;20203;-68
2022/05/27 05:27:28;;;;;;;3.30;3.00;;;17.10;99.90;;;;;;5055131;28;20309;-68
2022/05/27 05:29:57;;;;;;;3.17;2.88;;;17.00;99.90;;;;;;5055269;28;20203;-68
2022/05/27 05:32:25;;;;;;;9.98;8.82;;;17.00;99.90;;;;;;5054890;28;20223;-67
2022/05/27 05:34:51;;;;;;;9.23;8.23;;;17.00;99.90;;;;;;5055200;28;20203;-68
2022/05/27 05:37:18;;;;;;;3.90;3.60;;;17.10;99.90;;;;;;5054872;28;20225;-68
2022/05/27 05:39:45;;;;;;;2.90;2.70;;;17.20;99.90;;;;;;5054821;28;20203;-68
2022/05/27 05:42:12;;;;;;;2.90;2.70;;;17.20;99.90;;;;;;5054754;28;20214;-68
2022/05/27 05:44:39;;;;;;;4.25;2.60;;;17.20;99.90;;;;;;5054941;28;20294;-68
2022/05/27 05:47:07;;;;;;;3.00;2.60;;;17.20;99.90;;;;;;5054786;28;20220;-68
2022/05/27 05:49:34;;;;;;;3.10;2.90;;;17.20;99.90;;;;;;5054908;28;20211;-68
2022/05/27 05:52:01;;;;;;;2.95;2.60;;;17.20;99.90;;;;;;5054800;28;20219;-68
2022/05/27 05:54:29;;;;;;;2.80;2.60;;;17.30;99.90;;;;;;5054340;28;20230;-68
2022/05/27 05:56:59;;;;;;;2.75;2.55;;;17.30;99.90;;;;;;5054655;28;20223;-68
2022/05/27 05:59:29;;;;;;;3.03;2.83;;;17.40;99.90;;;;;;5054627;28;20199;-68
2022/05/27 06:01:56;;;;;;;3.53;2.75;;;17.40;99.90;;;;;;5054666;28;20290;-68
2022/05/27 06:04:24;;;;;;;2.85;2.60;;;17.40;99.90;;;;;;5054602;28;20212;-68
2022/05/27 06:06:51;;;;;;;2.90;2.70;;;17.40;99.90;;;;;;5054457;28;20203;-68
2022/05/27 06:09:19;;;;;;;2.70;2.50;;;17.40;99.90;;;;;;5054465;28;20200;-68
2022/05/27 06:11:46;;;;;;;3.42;2.80;;;17.40;99.90;;;;;;5054332;28;20223;-68
2022/05/27 06:14:13;;;;;;;3.30;3.00;;;17.40;99.90;;;;;;5053371;28;20688;-67
2022/05/27 06:16:40;;;;;;;3.25;3.00;;;17.40;99.90;;;;;;5053930;28;20210;-68
2022/05/27 06:19:07;;;;;;;3.28;2.88;;;17.40;99.90;;;;;;5054082;28;20209;-68
2022/05/27 06:21:35;;;;;;;10.20;8.30;;;17.50;99.90;;;;;;5054244;28;20209;-68
2022/05/27 06:24:03;;;;;;;3.90;3.30;;;17.50;99.90;;;;;;5053734;28;20738;-68
2022/05/27 06:26:30;;;;;;;3.10;2.90;;;17.50;99.90;;;;;;5054092;28;20203;-68
2022/05/27 06:34:26;;;;;;;4.28;3.75;;;17.50;99.90;;;;;;5053890;28;20214;-68
2022/05/27 06:36:57;;;;;;;3.45;3.20;;;17.50;99.90;;;;;;5053939;28;20291;-68
2022/05/27 06:39:25;;;;;;;2.90;2.70;;;17.50;99.90;;;;;;5053768;28;20192;-68
2022/05/27 06:41:52;;;;;;;3.97;2.63;;;17.40;99.90;;;;;;5053976;28;20200;-68
2022/05/27 06:44:19;;;;;;;3.15;2.85;;;17.50;99.90;;;;;;5053695;28;20200;-68
2022/05/27 06:46:49;;;;;;;3.33;3.00;;;17.50;99.90;;;;;;5053715;28;20200;-68
2022/05/27 06:49:16;;;;;;;3.58;3.20;;;17.40;99.90;;;;;;5053783;28;20211;-68
2022/05/27 06:51:43;;;;;;;3.58;2.92;;;17.40;99.90;;;;;;5053671;28;20227;-68
2022/05/27 06:54:11;;;;;;;3.88;2.88;;;17.40;99.90;;;;;;5053424;28;20219;-68
2022/05/27 06:56:40;;;;;;;3.38;2.95;;;17.40;99.90;;;;;;5053497;28;20708;-68
2022/05/27 06:59:08;;;;;;;3.40;3.10;;;17.40;99.90;;;;;;5053760;28;20225;-68
2022/05/27 07:01:36;;;;;;;3.55;2.90;;;17.50;99.90;;;;;;5053568;28;20203;-68
2022/05/27 07:04:04;;;;;;;3.42;3.13;;;17.40;99.90;;;;;;5053594;28;20561;-68
2022/05/27 07:06:37;;;;;;;5.20;3.35;;;17.40;99.90;;;;;;5053987;28;20199;-67
2022/05/27 07:09:05;;;;;;;6.95;6.25;;;17.30;99.90;;;;;;5053381;28;20641;-68
2022/05/27 07:11:34;;;;;;;4.50;3.70;;;17.20;99.90;;;;;;5053352;28;20703;-68
2022/05/27 07:14:01;;;;;;;3.70;3.40;;;17.20;99.90;;;;;;5053041;28;20208;-68
2022/05/27 07:16:28;;;;;;;3.72;3.30;;;17.10;99.90;;;;;;5053468;28;20297;-68
2022/05/27 07:18:55;;;;;;;2.83;2.60;;;17.10;99.90;;;;;;5053180;28;20717;-68
2022/05/27 07:21:22;;;;;;;5.22;3.33;;;17.10;99.90;;;;;;5053410;28;20202;-68
2022/05/27 07:23:52;;;;;;;4.57;3.80;;;17.10;99.90;;;;;;5053131;28;20204;-68
2022/05/27 07:26:19;;;;;;;3.25;2.95;;;17.10;99.90;;;;;;5054657;28;20569;-69
2022/05/27 07:28:47;;;;;;;3.45;3.15;;;17.20;99.90;;;;;;5057535;28;20230;-68
2022/05/27 07:31:14;;;;;;;3.47;3.28;;;17.20;99.90;;;;;;5057186;28;20685;-68
2022/05/27 07:33:41;;;;;;;5.25;3.08;;;17.00;99.90;;;;;;5057060;28;20670;-68
2022/05/27 07:36:08;;;;;;;3.92;3.53;;;17.10;99.90;;;;;;5057260;28;20669;-68
2022/05/27 07:38:35;;;;;;;3.63;2.95;;;17.00;99.90;;;;;;5057277;28;20305;-68
2022/05/27 07:41:02;;;;;;;3.95;3.00;;;17.10;99.90;;;;;;5057222;28;20229;-68
2022/05/27 07:43:28;;;;;;;3.67;3.28;;;17.00;99.90;;;;;;5056879;28;20683;-68
2022/05/27 07:45:58;;;;;;;3.58;3.28;;;17.10;99.90;;;;;;5057190;28;20233;-68
2022/05/27 07:48:25;;;;;;;3.40;2.78;;;17.10;99.90;;;;;;5057130;28;20226;-68
2022/05/27 07:50:52;;;;;;;4.45;3.60;;;17.20;99.90;;;;;;5056985;28;20199;-68
2022/05/27 07:53:19;;;;;;;3.40;3.10;;;17.20;99.90;;;;;;5056683;28;20215;-68
2022/05/27 07:55:46;;;;;;;2.90;2.70;;;17.20;99.90;;;;;;5057049;28;20215;-68
2022/05/27 07:58:13;;;;;;;6.05;3.08;;;17.20;99.90;;;;;;5056957;28;20249;-67
2022/05/27 08:00:40;;;;;;;3.85;3.55;;;17.20;99.90;;;;;;5056930;28;20203;-68
2022/05/27 08:03:08;;;;;;;3.45;3.25;;;17.10;99.90;;;;;;5056633;28;20236;-68
2022/05/27 08:05:36;;;;;;;3.13;2.75;;;17.10;99.90;;;;;;5056804;28;20221;-68
2022/05/27 08:08:04;;;;;;;3.47;3.17;;;17.20;99.90;;;;;;5056654;28;20262;-68
2022/05/27 08:10:33;;;;;;;5.05;3.20;;;17.20;99.90;;;;;;5056754;28;20203;-68
2022/05/27 08:13:00;;;;;;;3.40;3.10;;;17.40;99.90;;;;;;5056452;28;20228;-68
2022/05/27 08:15:28;;;;;;;4.72;3.00;;;17.50;99.90;;;;;;5056655;28;20211;-68
2022/05/27 08:17:55;;;;;;;3.92;3.50;;;17.60;99.90;;;;;;5056505;28;20231;-68
2022/05/27 08:20:25;;;;;;;3.92;3.58;;;17.60;99.90;;;;;;5056619;28;20210;-68
2022/05/27 08:22:53;;;;;;;3.47;3.17;;;17.50;99.90;;;;;;5056226;28;20200;-68
2022/05/27 08:25:22;;;;;;;4.75;2.90;;;17.60;99.90;;;;;;5056216;28;20666;-68
2022/05/27 08:27:49;;;;;;;4.28;3.60;;;17.70;99.90;;;;;;5056067;28;20231;-68
2022/05/27 08:30:19;;;;;;;4.13;3.72;;;17.80;99.90;;;;;;5056382;28;20203;-69
2022/05/27 08:32:47;;;;;;;2.97;2.78;;;17.90;99.90;;;;;;5056099;28;20234;-68
2022/05/27 08:38:06;;;;;;;3.97;3.67;;;18.00;99.90;;;;;;5061749;28;20233;-70
2022/05/27 08:40:56;;;;;;;3.22;3.03;;;18.00;99.90;;;;;;5075147;28;20284;-75
2022/05/27 08:43:29;;;;;;;3.42;3.00;;;18.00;99.90;;;;;;5074721;28;20285;-70
2022/05/27 08:46:06;;;;;;;3.17;2.95;;;18.00;99.90;;;;;;5074836;28;20206;-70
2022/05/27 08:48:38;;;;;;;4.82;3.53;;;17.90;99.90;;;;;;5074678;28;20656;-70
2022/05/27 08:51:16;;;;;;;4.18;3.67;;;17.80;99.90;;;;;;5074314;28;20254;-70
2022/05/27 08:53:50;;;;;;;2.75;2.55;;;17.90;99.90;;;;;;5074261;28;20225;-70
2022/05/27 08:59:31;;;;;;;2.90;2.67;;;18.00;99.90;;;;;;5074710;28;20303;-69
2022/05/27 09:02:08;;;;;;;3.30;3.03;;;17.80;99.90;;;;;;5074412;28;20198;-71
2022/05/27 09:04:40;;;;;;;3.60;3.35;;;17.80;99.90;;;;;;5074533;28;20217;-70
2022/05/27 09:07:30;;;;;;;4.03;3.63;;;17.80;99.90;;;;;;5074604;28;20662;-70
2022/05/27 09:09:59;;;;;;;4.00;3.13;;;17.80;99.90;;;;;;5074376;28;20275;-70
2022/05/27 09:12:41;;;;;;;3.40;3.10;;;17.80;99.90;;;;;;5074103;28;20291;-69
2022/05/27 09:15:22;;;;;;;6.30;5.03;;;18.00;99.90;;;;;;5074541;28;20207;-70
2022/05/27 09:17:55;;;;;;;5.00;3.40;;;18.10;99.90;;;;;;5074689;28;20656;-70
2022/05/27 09:20:32;;;;;;;3.17;2.97;;;18.50;99.90;;;;;;5074275;28;20210;-70
2022/05/27 09:23:12;;;;;;;3.83;2.87;;;19.80;99.90;;;;;;5074066;28;20440;-69
2022/05/27 09:25:50;;;;;;;3.50;3.20;;;21.20;97.00;;;;;;5074271;28;20460;-69
2022/05/27 09:28:27;;;;;;;2.90;2.67;;;22.90;93.60;;;;;;5074222;28;20973;-71
2022/05/27 09:30:55;;;;;;;4.70;3.13;;;24.70;91.50;;;;;;5074126;28;20996;-72
2022/05/27 09:33:23;;;;;;;3.20;3.00;;;26.00;81.60;;;;;;5073687;28;20483;-71
2022/05/27 09:35:53;;;;;;;2.90;2.70;;;26.50;77.70;;;;;;5074467;28;20849;-70
2022/05/27 09:38:24;;;;;;;6.23;5.73;;;27.60;75.30;;;;;;5074027;28;20473;-71
2022/05/27 09:40:56;;;;;;;4.97;3.20;;;27.80;68.40;;;;;;5073979;28;20828;-70
2022/05/27 09:43:30;;;;;;;2.43;2.20;;;27.60;65.80;;;;;;5073815;28;20451;-69
2022/05/27 09:46:00;;;;;;;2.67;2.47;;;27.60;63.70;;;;;;5073891;28;20478;-70
2022/05/27 09:48:27;;;;;;;3.00;2.90;;;26.50;64.30;;;;;;5073784;28;20471;-71
2022/05/27 09:50:56;;;;;;;3.03;2.77;;;25.10;67.70;;;;;;5073590;28;20444;-72
2022/05/27 09:53:29;;;;;;;2.80;2.60;;;24.20;70.70;;;;;;5073072;28;21006;-70
2022/05/27 09:56:02;;;;;;;2.50;2.40;;;23.40;75.30;;;;;;5073622;28;20943;-71
2022/05/27 09:58:32;;;;;;;2.80;2.60;;;22.90;77.20;;;;;;5073308;28;20862;-69
2022/05/27 10:01:02;;;;;;;3.30;2.77;;;22.30;78.90;;;;;;5073568;28;20449;-71
2022/05/27 10:03:33;;;;;;;2.77;2.57;;;21.90;81.30;;;;;;5073651;28;20521;-71
2022/05/27 10:06:03;;;;;;;2.97;2.77;;;21.60;80.90;;;;;;5073715;28;20449;-71
2022/05/27 10:08:44;;;;;;;2.83;2.63;;;21.60;82.40;;;;;;5073351;28;20471;-71
2022/05/27 10:11:30;;;;;;;3.00;2.70;;;21.50;83.10;;;;;;5073280;28;20451;-73
2022/05/27 10:14:12;;;;;;;5.20;2.90;;;21.50;82.30;;;;;;5073168;28;20953;-71
2022/05/27 10:16:40;;;;;;;2.70;2.60;;;22.80;82.20;;;;;;5073033;28;20462;-72
2022/05/27 10:19:13;;;;;;;2.37;2.23;;;24.40;77.00;;;;;;5073132;28;20444;-71
2022/05/27 10:21:52;;;;;;;2.23;2.13;;;25.30;71.20;;;;;;5073134;28;20539;-72
2022/05/27 10:24:21;;;;;;;3.63;3.40;;;26.10;66.30;;;;;;5073185;28;20830;-72
2022/05/27 10:27:02;;;;;;;4.03;2.50;;;26.60;66.60;;;;;;5073530;28;20447;-71
2022/05/27 10:29:29;;;;;;;2.47;2.37;;;26.90;63.30;;;;;;5072967;28;20457;-70
2022/05/27 10:31:58;;;;;;;2.90;2.70;;;26.70;62.90;;;;;;5072633;28;20487;-71
2022/05/27 10:34:41;;;;;;;2.57;2.47;;;25.90;62.40;;;;;;5073192;28;20460;-71
2022/05/27 10:37:23;;;;;;;2.93;2.73;;;25.00;64.90;;;;;;5073115;28;20468;-71
2022/05/27 10:40:03;;;;;;;3.60;2.40;;;24.30;66.50;;;;;;5073022;28;20454;-72
2022/05/27 10:42:44;;;;;;;3.00;2.80;;;23.70;70.10;;;;;;5072659;28;20848;-71
2022/05/27 10:45:19;;;;;;;2.30;2.10;;;23.00;72.00;;;;;;5073120;28;20969;-70
2022/05/27 10:48:15;;;;;;;2.80;2.47;;;22.60;70.80;;;;;;5072812;28;21001;-70
2022/05/27 10:50:51;;;;;;;3.20;2.60;;;22.20;70.80;;;;;;5072634;28;20815;-71
2022/05/27 10:53:50;;;;;;;2.83;2.70;;;22.00;73.10;;;;;;5072484;28;20567;-70
2022/05/27 10:56:31;;;;;;;2.67;2.47;;;21.70;75.20;;;;;;5067522;28;20452;-70
2022/05/27 11:02:10;;;;;;;2.80;2.60;;;21.70;75.30;;;;;;5071710;28;20450;-70
2022/05/27 11:05:10;;;;;;;2.50;2.40;;;21.80;75.10;;;;;;5072653;28;20445;-70
2022/05/27 11:07:50;;;;;;;2.13;2.03;;;21.50;73.40;;;;;;5061510;28;21137;-70
2022/05/27 11:10:30;;;;;;;2.40;2.20;;;21.00;74.70;;;;;;5072691;28;20871;-71
2022/05/27 11:16:19;;;;;;;2.60;2.40;;;20.60;78.70;;;;;;5072527;28;20834;-69
2022/05/27 11:19:00;;;;;;;2.53;2.33;;;20.30;78.90;;;;;;5072633;28;20471;-70
2022/05/27 11:21:44;;;;;;;2.27;2.17;;;20.20;80.40;;;;;;5072216;28;20542;-70
2022/05/27 11:24:42;;;;;;;2.70;2.50;;;20.30;80.20;;;;;;5071935;28;20834;-70
2022/05/27 11:27:20;;;;;;;2.50;2.30;;;20.30;80.50;;;;;;5072336;28;20479;-70
2022/05/27 11:30:04;;;;;;;3.13;2.67;;;20.30;81.50;;;;;;5072170;28;20446;-69
2022/05/27 11:32:54;;;;;;;2.63;2.47;;;20.30;82.40;;;;;;5072094;28;20476;-70
2022/05/27 11:35:32;;;;;;;3.10;2.80;;;20.40;81.60;;;;;;5072240;28;20448;-70
2022/05/27 11:38:14;;;;;;;2.40;2.30;;;20.40;82.70;;;;;;5072240;28;20463;-69
2022/05/27 11:40:50;;;;;;;6.20;2.90;;;20.50;83.00;;;;;;5072189;28;20439;-69
2022/05/27 11:43:53;;;;;;;2.50;2.30;;;20.50;82.00;;;;;;5071611;28;20532;-71
2022/05/27 11:46:43;;;;;;;3.77;3.53;;;20.50;81.80;;;;;;5010106;28;20448;-71
2022/05/27 11:49:30;;;;;;;2.90;2.70;;;20.70;82.30;;;;;;5010095;28;20469;-71
2022/05/27 11:52:19;;;;;;;2.70;2.50;;;20.90;82.90;;;;;;5057130;28;20444;-70
2022/05/27 11:55:02;;;;;;;2.57;2.37;;;20.90;82.00;;;;;;5071817;28;20459;-71
2022/05/27 11:57:41;;;;;;;3.20;2.93;;;20.80;81.80;;;;;;5071824;28;21378;-70
2022/05/27 12:00:12;;;;;;;2.47;2.27;;;20.80;83.00;;;;;;5072027;28;20459;-69
2022/05/27 12:02:47;;;;;;;2.57;2.37;;;20.80;82.90;;;;;;5071743;28;20530;-71
2022/05/27 12:05:19;;;;;;;2.90;2.70;;;20.80;81.60;;;;;;5071701;28;20538;-70
2022/05/27 12:07:55;;;;;;;3.00;2.80;;;20.70;82.90;;;;;;5071570;28;20471;-70
2022/05/27 12:10:25;;;;;;;2.80;2.60;;;20.70;83.30;;;;;;5071837;28;20448;-70
2022/05/27 12:12:58;;;;;;;2.13;2.03;;;20.80;83.90;;;;;;5073428;28;20480;-70
2022/05/27 12:15:30;;;;;;;3.10;2.90;;;20.80;83.40;;;;;;5075225;28;20451;-70
2022/05/27 12:17:59;;;;;;;3.27;3.00;;;20.80;82.90;;;;;;5075168;28;20472;-69
2022/05/27 12:20:31;;;;;;;3.40;3.10;;;20.80;83.50;;;;;;5074857;28;20456;-70
2022/05/27 12:23:02;;;;;;;2.83;2.63;;;20.80;84.80;;;;;;5075061;28;20448;-71
2022/05/27 12:25:35;;;;;;;3.20;3.00;;;20.70;85.60;;;;;;5075151;28;20456;-70
2022/05/27 12:28:03;;;;;;;2.83;2.63;;;20.70;86.80;;;;;;5075098;28;20467;-69
2022/05/27 12:30:35;;;;;;;2.60;2.50;;;20.70;85.60;;;;;;5074573;28;20934;-68
2022/05/27 12:33:02;;;;;;;5.30;4.80;;;20.80;85.50;;;;;;5074790;28;20495;-70
2022/05/27 12:35:47;;;;;;;6.00;5.50;;;20.80;84.40;;;;;;5075038;28;20444;-69
2022/05/27 12:38:16;;;;;;;3.27;3.07;;;20.70;84.60;;;;;;5074677;28;20478;-70
2022/05/27 12:40:49;;;;;;;2.90;2.70;;;20.70;85.80;;;;;;5074661;28;20454;-69
2022/05/27 12:43:25;;;;;;;2.80;2.60;;;20.80;86.40;;;;;;5074378;28;20444;-70
2022/05/27 12:45:54;;;;;;;3.07;2.80;;;21.10;86.30;;;;;;5074765;28;20456;-70
2022/05/27 12:48:34;;;;;;;2.80;2.70;;;21.50;86.30;;;;;;5074799;28;20556;-70
2022/05/27 12:51:05;;;;;;;2.50;2.40;;;22.00;85.60;;;;;;5074850;28;20491;-70
2022/05/27 12:53:43;;;;;;;2.60;2.47;;;22.30;82.80;;;;;;5074046;28;20484;-69
2022/05/27 13:02:50;;;;;;;3.33;3.03;;;22.00;82.50;;;;;;5075649;28;20930;-69
2022/05/27 13:05:19;;;;;;;6.17;5.27;;;21.80;82.10;;;;;;5075676;28;20969;-69
2022/05/27 13:07:53;;;;;;;3.10;2.90;;;21.50;83.80;;;;;;5075530;28;20544;-69
2022/05/27 13:10:49;;;;;;;2.50;2.40;;;21.10;84.30;;;;;;5075666;28;20448;-69
2022/05/27 13:13:22;;;;;;;2.67;2.47;;;20.80;86.00;;;;;;5075378;28;20495;-69
2022/05/27 13:15:54;;;;;;;2.63;2.43;;;20.60;86.10;;;;;;5075603;28;20439;-69
2022/05/27 13:18:35;;;;;;;2.97;2.77;;;20.50;88.90;;;;;;5075712;28;20463;-69
2022/05/27 13:21:09;;;;;;;2.63;2.43;;;20.50;88.80;;;;;;5075920;28;20462;-69
2022/05/27 13:23:51;;;;;;;3.10;2.80;;;20.60;90.00;;;;;;5075572;28;20476;-69
2022/05/27 13:26:30;;;;;;;2.93;2.10;;;20.50;89.30;;;;;;5076137;28;20455;-69
2022/05/27 13:28:58;;;;;;;2.57;2.37;;;20.50;88.70;;;;;;5075578;28;20563;-69
2022/05/27 13:31:31;;;;;;;2.30;2.20;;;20.50;88.30;;;;;;5076032;28;20480;-69
2022/05/27 13:34:04;;;;;;;2.80;2.60;;;20.50;88.90;;;;;;5074990;28;20490;-69
2022/05/27 13:36:38;;;;;;;2.80;2.60;;;20.50;87.80;;;;;;5075179;28;20448;-69
2022/05/27 13:39:10;;;;;;;2.53;2.43;;;20.50;88.20;;;;;;5074891;28;20428;-69
2022/05/27 13:41:41;;;;;;;2.43;2.30;;;20.50;89.30;;;;;;5075091;28;20444;-69
2022/05/27 13:44:10;;;;;;;2.47;2.37;;;20.50;89.10;;;;;;5075008;28;20526;-69
2022/05/27 13:46:41;;;;;;;2.93;2.73;;;20.50;89.60;;;;;;5074906;28;20444;-69